createdAt,value
2023-05-09T00:03:25.605Z,91.00
2023-05-09T00:08:29.531Z,91.10
2023-05-09T00:13:35.509Z,91.30
2023-05-09T00:18:42.631Z,91.50
2023-05-09T00:23:46.191Z,91.70
2023-05-09T00:28:51.068Z,92.20
2023-05-09T00:33:55.865Z,92.10
2023-05-09T00:38:59.066Z,92.30
2023-05-09T00:44:03.675Z,92.40
2023-05-09T00:49:08.166Z,92.50
2023-05-09T00:54:12.817Z,92.50
2023-05-09T00:59:18.087Z,92.60
2023-05-09T01:04:21.356Z,92.70
2023-05-09T01:09:30.528Z,92.70
2023-05-09T01:14:56.023Z,92.60
2023-05-09T01:20:06.928Z,92.70
2023-05-09T01:25:39.141Z,92.70
2023-05-09T01:30:47.929Z,92.70
2023-05-09T01:35:55.018Z,92.60
2023-05-09T01:40:59.900Z,92.50
2023-05-09T01:46:06.701Z,92.60
2023-05-09T01:51:12.391Z,92.70
2023-05-09T01:56:17.124Z,92.80
2023-05-09T02:01:23.054Z,92.70
2023-05-09T02:06:29.758Z,92.70
2023-05-09T02:11:33.919Z,92.90
2023-05-09T02:16:40.186Z,93.10
2023-05-09T02:21:44.253Z,93.20
2023-05-09T02:26:47.727Z,93.30
2023-05-09T02:31:53.375Z,93.30
2023-05-09T02:36:56.712Z,93.40
2023-05-09T02:42:06.952Z,93.40
2023-05-09T02:47:11.541Z,93.40
2023-05-09T02:52:15.041Z,93.30
2023-05-09T02:57:18.369Z,93.40
2023-05-09T03:02:23.768Z,93.40
2023-05-09T03:07:27.992Z,93.30
2023-05-09T03:12:31.267Z,93.30
2023-05-09T03:17:36.430Z,93.40
2023-05-09T03:22:40.227Z,93.40
2023-05-09T03:27:46.324Z,93.50
2023-05-09T03:32:53.190Z,93.50
2023-05-09T03:37:56.965Z,93.50
2023-05-09T03:43:00.230Z,93.50
2023-05-09T03:48:08.584Z,93.60
2023-05-09T03:53:15.406Z,93.60
2023-05-09T03:58:21.157Z,93.60
2023-05-09T04:03:27.042Z,93.60
2023-05-09T04:08:31.144Z,93.70
2023-05-09T04:13:35.575Z,93.60
2023-05-09T04:18:45.335Z,93.60
2023-05-09T04:23:48.626Z,93.60
2023-05-09T04:28:54.036Z,93.50
2023-05-09T04:33:58.924Z,93.40
2023-05-09T04:39:05.235Z,95.20
2023-05-09T04:44:11.206Z,93.60
2023-05-09T04:49:16.619Z,90.40
2023-05-09T04:54:20.396Z,84.70
2023-05-09T04:59:24.902Z,78.60
2023-05-09T05:04:30.511Z,75.20
2023-05-09T05:09:34.385Z,76.80
2023-05-09T05:14:38.228Z,78.70
2023-05-09T05:19:45.926Z,80.50
2023-05-09T05:24:49.966Z,81.00
2023-05-09T05:29:53.845Z,81.60
2023-05-09T05:34:59.035Z,82.60
2023-05-09T05:40:03.035Z,82.80
2023-05-09T05:45:08.866Z,83.20
2023-05-09T05:50:17.598Z,83.10
2023-05-09T05:55:21.394Z,83.10
2023-05-09T06:00:25.062Z,82.90
2023-05-09T06:05:37.679Z,82.80
2023-05-09T06:10:41.925Z,82.40
2023-05-09T06:15:45.345Z,82.40
2023-05-09T06:20:50.005Z,81.40
2023-05-09T06:25:53.220Z,80.60
2023-05-09T06:30:56.582Z,80.10
2023-05-09T06:36:02.124Z,79.60
2023-05-09T06:41:05.249Z,79.40
2023-05-09T06:46:08.842Z,79.00
2023-05-09T06:51:13.852Z,78.50
2023-05-09T06:56:20.267Z,78.20
2023-05-09T07:01:24.054Z,77.40
2023-05-09T07:06:29.189Z,76.80
2023-05-09T07:11:36.608Z,76.20
2023-05-09T07:16:40.082Z,75.40
2023-05-09T07:21:45.198Z,74.60
2023-05-09T07:26:48.465Z,74.20
2023-05-09T07:31:51.959Z,73.60
2023-05-09T07:36:57.131Z,73.10
2023-05-09T07:42:00.424Z,72.20
2023-05-09T07:47:05.661Z,71.70
2023-05-09T07:52:11.016Z,71.20
2023-05-09T07:57:14.385Z,70.40
2023-05-09T08:02:17.656Z,69.50
2023-05-09T08:07:22.885Z,68.90
2023-05-09T08:12:26.695Z,68.20
2023-05-09T08:17:30.361Z,67.40
2023-05-09T08:22:35.254Z,66.60
2023-05-09T08:27:39.045Z,66.40
2023-05-09T08:32:42.758Z,65.90
2023-05-09T08:37:48.357Z,65.30
2023-05-09T08:42:52.283Z,65.00
2023-05-09T08:47:56.401Z,64.20
2023-05-09T08:53:01.561Z,63.60
2023-05-09T08:58:05.673Z,62.80
2023-05-09T09:03:09.937Z,62.20
2023-05-09T09:08:15.742Z,61.70
2023-05-09T09:13:20.100Z,61.00
2023-05-09T09:18:27.678Z,60.40
2023-05-09T09:23:34.606Z,59.80
2023-05-09T09:28:38.253Z,59.40
2023-05-09T09:33:41.697Z,59.40
2023-05-09T09:38:46.766Z,58.70
2023-05-09T09:43:50.572Z,58.10
2023-05-09T09:48:57.947Z,57.60
2023-05-09T09:54:03.842Z,57.30
2023-05-09T09:59:11.362Z,56.80
2023-05-09T10:04:17.935Z,57.00
2023-05-09T10:09:23.903Z,56.90
2023-05-09T10:14:28.880Z,56.60
2023-05-09T10:19:32.969Z,56.50
2023-05-09T10:24:43.475Z,56.30
2023-05-09T10:29:51.281Z,55.90
2023-05-09T10:34:59.776Z,55.70
2023-05-09T10:40:06.590Z,55.50
2023-05-09T10:45:12.173Z,54.70
2023-05-09T10:50:16.552Z,54.80
2023-05-09T10:55:21.674Z,54.60
2023-05-09T11:00:26.604Z,54.50
2023-05-09T11:05:40.628Z,54.20
2023-05-09T11:10:45.684Z,54.10
2023-05-09T11:16:05.200Z,53.90
2023-05-09T11:21:11.800Z,53.90
2023-05-09T11:26:17.749Z,53.40
2023-05-09T11:31:21.518Z,53.50
2023-05-09T11:36:32.339Z,53.20
2023-05-09T11:41:48.720Z,53.20
2023-05-09T11:46:52.356Z,52.70
2023-05-09T11:51:55.597Z,52.70
2023-05-09T11:57:01.226Z,52.40
2023-05-09T12:02:06.362Z,52.00
2023-05-09T12:07:12.792Z,51.80
2023-05-09T12:12:21.113Z,51.50
2023-05-09T12:17:24.870Z,51.40
2023-05-09T12:22:30.823Z,51.50
2023-05-09T12:27:36.985Z,51.00
2023-05-09T12:32:42.374Z,51.00
2023-05-09T12:37:57.543Z,50.70
2023-05-09T12:43:03.061Z,50.70
2023-05-09T12:48:09.447Z,50.60
2023-05-09T12:53:13.209Z,50.20
2023-05-09T12:58:18.274Z,49.80
2023-05-09T13:03:25.607Z,49.50
2023-05-09T13:08:30.557Z,49.20
2023-05-09T13:13:35.795Z,49.20
2023-05-09T13:18:39.423Z,48.70
2023-05-09T13:23:44.855Z,48.10
2023-05-09T13:28:50.091Z,47.40
2023-05-09T13:33:53.775Z,46.70
2023-05-09T13:38:57.477Z,45.60
2023-05-09T13:44:02.446Z,44.40
2023-05-09T13:49:06.558Z,44.00
2023-05-09T13:54:13.071Z,43.60
2023-05-09T13:59:18.123Z,43.00
2023-05-09T14:04:21.640Z,42.20
2023-05-09T14:09:25.383Z,42.00
2023-05-09T14:14:30.262Z,41.90
2023-05-09T14:19:33.892Z,41.50
2023-05-09T14:24:37.395Z,41.40
2023-05-09T14:29:43.536Z,41.10
2023-05-09T14:34:49.908Z,41.00
2023-05-09T14:39:53.527Z,41.00
2023-05-09T14:44:58.600Z,40.60
2023-05-09T14:50:01.879Z,40.00
2023-05-09T14:55:07.227Z,39.70
2023-05-09T15:00:21.299Z,39.10
2023-05-09T15:05:25.834Z,38.90
2023-05-09T15:10:29.716Z,38.60
2023-05-09T15:15:34.729Z,38.70
2023-05-09T15:20:38.170Z,38.80
2023-05-09T15:25:44.903Z,38.50
2023-05-09T15:30:49.905Z,38.20
2023-05-09T15:35:58.014Z,38.10
2023-05-09T15:41:01.677Z,37.80
2023-05-09T15:46:06.833Z,37.70
2023-05-09T15:51:10.413Z,38.00
2023-05-09T15:56:13.667Z,38.20
2023-05-09T16:01:18.807Z,38.40
2023-05-09T16:06:22.580Z,38.50
2023-05-09T16:11:26.407Z,38.30
2023-05-09T16:16:31.336Z,38.30
2023-05-09T16:21:34.501Z,38.30
2023-05-09T16:26:37.785Z,38.50
2023-05-09T16:31:42.947Z,38.70
2023-05-09T16:36:46.847Z,38.40
2023-05-09T16:41:50.530Z,38.50
2023-05-09T16:46:55.827Z,38.40
2023-05-09T16:51:59.783Z,38.30
2023-05-09T16:57:03.673Z,38.50
2023-05-09T17:02:09.165Z,39.00
2023-05-09T17:07:14.767Z,39.40
2023-05-09T17:12:18.728Z,39.80
2023-05-09T17:17:23.682Z,40.50
2023-05-09T17:22:27.426Z,40.90
2023-05-09T17:27:30.961Z,41.60
2023-05-09T17:32:35.987Z,41.90
2023-05-09T17:37:39.712Z,42.10
2023-05-09T17:42:43.317Z,42.20
2023-05-09T17:47:48.450Z,42.80
2023-05-09T17:52:52.184Z,43.40
2023-05-09T17:57:55.926Z,43.90
2023-05-09T18:03:01.742Z,44.50
2023-05-09T18:08:06.065Z,44.90
2023-05-09T18:13:09.630Z,45.30
2023-05-09T18:18:16.041Z,45.90
2023-05-09T18:23:19.633Z,46.40
2023-05-09T18:28:25.710Z,47.10
2023-05-09T18:33:30.681Z,47.80
2023-05-09T18:38:38.394Z,49.10
2023-05-09T18:43:46.244Z,49.20
2023-05-09T18:48:53.324Z,49.90
2023-05-09T18:53:57.155Z,50.50
2023-05-09T18:59:00.845Z,51.10
2023-05-09T19:04:07.365Z,51.60
2023-05-09T19:09:11.882Z,52.20
2023-05-09T19:14:15.382Z,52.70
2023-05-09T19:19:20.493Z,53.10
2023-05-09T19:24:24.144Z,53.70
2023-05-09T19:29:27.786Z,54.30
2023-05-09T19:34:32.603Z,54.80
2023-05-09T19:39:36.060Z,55.50
2023-05-09T19:44:40.849Z,56.10
2023-05-09T19:49:46.042Z,56.70
2023-05-09T19:54:49.943Z,57.30
2023-05-09T19:59:53.762Z,57.90
2023-05-09T20:04:58.720Z,58.50
2023-05-09T20:10:03.480Z,59.00
2023-05-09T20:15:08.402Z,59.50
2023-05-09T20:20:14.237Z,59.90
2023-05-09T20:25:18.152Z,60.30
2023-05-09T20:30:22.203Z,60.60
2023-05-09T20:35:27.056Z,60.90
2023-05-09T20:40:30.729Z,61.20
2023-05-09T20:45:34.675Z,61.50
2023-05-09T20:50:39.890Z,61.80
2023-05-09T20:55:43.609Z,62.10
2023-05-09T21:00:47.849Z,62.40
2023-05-09T21:05:52.984Z,62.60
2023-05-09T21:10:56.635Z,62.90
2023-05-09T21:16:00.337Z,63.10
2023-05-09T21:21:08.496Z,63.50
2023-05-09T21:26:12.143Z,63.90
2023-05-09T21:31:15.937Z,64.00
2023-05-09T21:36:21.247Z,64.20
2023-05-09T21:41:24.749Z,64.40
2023-05-09T21:46:28.383Z,64.60
2023-05-09T21:51:33.817Z,65.00
2023-05-09T21:56:37.403Z,65.20
2023-05-09T22:01:41.728Z,65.40
2023-05-09T22:06:47.850Z,65.80
2023-05-09T22:11:52.331Z,66.10
2023-05-09T22:16:56.001Z,66.40
2023-05-09T22:22:01.200Z,66.60
2023-05-09T22:27:04.850Z,67.00
2023-05-09T22:32:09.059Z,67.30
2023-05-09T22:37:14.171Z,67.60
2023-05-09T22:42:22.470Z,67.90
2023-05-09T22:47:26.009Z,68.30
2023-05-09T22:52:31.121Z,68.70
2023-05-09T22:57:34.623Z,69.00
2023-05-09T23:02:38.016Z,69.40
2023-05-09T23:07:43.060Z,69.60
2023-05-09T23:12:46.977Z,70.10
2023-05-09T23:17:50.846Z,70.40
2023-05-09T23:22:55.862Z,70.70
2023-05-09T23:27:59.490Z,71.10
2023-05-09T23:33:03.695Z,71.40
2023-05-09T23:38:08.640Z,71.70
2023-05-09T23:43:12.225Z,72.10
2023-05-09T23:48:15.906Z,72.40
2023-05-09T23:53:20.573Z,72.60
2023-05-09T23:58:23.910Z,72.80
